Terminal Aerodrome Forecast
Issued by NWS Sioux Falls, SD

Home | Current Version | Previous Version | Text Only | Print | Product List | Glossary Off
Versions: 1 2 3 4 5 6 7 8 9 10 11 12 13 14 15 16 17 18 19 20 21 22 23 24

685
FTUS43 KFSD 230520
TAFFSD
TAF
KFSD 230520Z 2306/2406 17017G25KT P6SM BKN070
     FM231400 16014G23KT P6SM OVC025
     FM231600 16016KT P6SM OVC015
     FM231800 16016KT 4SM BR OVC007
     FM232000 14011KT 2SM -DZ BR OVC007
     FM240200 09006KT 4SM -SHRA OVC015=

USA.gov is the U.S. government's official web portal to all federal, state and local government web resources and services.